Time;durP1;ratioP1;P1;durP2;ratioP2;P2;SDS_P1;SDS_P2;PMS_P1;PMS_P2;Temp;Humidity;BMP_temperature;BMP_pressure;BME280_temperature;BME280_humidity;BME280_pressure;Samples;Min_cycle;Max_cycle;Signal;HPM_P1;HPM_P2
2021/04/19 00:01:51;;;;;;;7.15;6.17;;;;;;;14.28;48.57;100685.42;1793153;79;21134;-77
2021/04/19 00:04:19;;;;;;;7.53;6.83;;;;;;;14.31;48.47;100691.81;1803066;79;21160;-76
2021/04/19 00:06:48;;;;;;;6.40;5.65;;;;;;;14.31;48.40;100689.12;1801369;78;21037;-77
2021/04/19 00:09:16;;;;;;;6.95;6.20;;;;;;;14.34;48.36;100689.58;1802226;79;21124;-76
2021/04/19 00:11:44;;;;;;;6.30;5.70;;;;;;;14.36;48.34;100689.42;1804780;79;21156;-76
2021/04/19 00:14:13;;;;;;;7.83;6.30;;;;;;;14.38;48.29;100687.38;1810106;79;21147;-76
2021/04/19 00:16:42;;;;;;;7.05;6.08;;;;;;;14.39;48.28;100689.05;1774930;79;21137;-76
2021/04/19 00:19:10;;;;;;;6.95;6.28;;;;;;;14.41;48.27;100692.42;1805771;79;21636;-76
2021/04/19 00:21:39;;;;;;;6.95;6.25;;;;;;;14.40;48.28;100682.16;1810838;78;21126;-76
2021/04/19 00:24:08;;;;;;;7.72;6.58;;;;;;;14.44;48.20;100683.95;1808381;79;21552;-76
2021/04/19 00:26:37;;;;;;;6.97;6.28;;;;;;;14.44;48.22;100683.95;1802920;79;21660;-76
2021/04/19 00:29:05;;;;;;;7.20;6.45;;;;;;;14.41;48.27;100676.25;1805566;79;21501;-77
2021/04/19 00:31:34;;;;;;;6.92;6.22;;;;;;;14.42;48.32;100675.23;1793316;80;21631;-77
2021/04/19 00:34:02;;;;;;;6.90;5.55;;;;;;;14.41;48.28;100677.59;1807219;79;21152;-77
2021/04/19 00:36:32;;;;;;;7.45;5.75;;;;;;;14.36;48.38;100675.95;1804056;79;21565;-76
2021/04/19 00:38:59;;;;;;;7.28;6.08;;;;;;;14.35;48.43;100679.16;1811781;79;21069;-75
2021/04/19 00:41:27;;;;;;;6.40;5.75;;;;;;;14.33;48.43;100673.09;1793021;80;21516;-77
2021/04/19 00:43:54;;;;;;;6.05;5.45;;;;;;;14.39;48.21;100677.75;1806522;79;21164;-76
2021/04/19 00:46:23;;;;;;;6.05;5.45;;;;;;;14.44;47.94;100675.88;1785776;79;21158;-76
2021/04/19 00:48:50;;;;;;;6.80;6.03;;;;;;;14.42;47.81;100668.48;1750947;79;21132;-77
2021/04/19 00:51:17;;;;;;;7.42;5.60;;;;;;;14.39;47.84;100674.23;1775214;79;21491;-76
2021/04/19 00:53:45;;;;;;;6.70;6.03;;;;;;;14.35;47.83;100675.11;1808576;77;21129;-77
2021/04/19 00:56:12;;;;;;;6.62;5.90;;;;;;;14.33;47.78;100677.13;1775677;79;21160;-76
2021/04/19 00:58:41;;;;;;;5.85;5.17;;;;;;;14.32;47.77;100677.31;1802430;77;21159;-77
2021/04/19 01:01:09;;;;;;;6.25;5.47;;;;;;;14.28;47.85;100673.30;1801479;77;21102;-76
2021/04/19 01:03:39;;;;;;;6.28;5.67;;;;;;;14.30;47.90;100668.55;1800080;79;21068;-77
2021/04/19 01:06:07;;;;;;;9.60;6.30;;;;;;;14.29;48.01;100669.58;1764605;79;21104;-78
2021/04/19 01:08:35;;;;;;;6.42;5.80;;;;;;;14.27;48.05;100672.46;1784528;80;21677;-78
2021/04/19 01:11:04;;;;;;;6.90;6.22;;;;;;;14.29;48.02;100666.88;1784401;80;21199;-77
2021/04/19 01:13:33;;;;;;;7.22;5.72;;;;;;;14.31;47.94;100671.09;1785408;80;21113;-77
2021/04/19 01:16:01;;;;;;;6.12;5.50;;;;;;;14.38;47.69;100668.00;1785833;80;21124;-77
2021/04/19 01:18:29;;;;;;;10.08;6.00;;;;;;;14.32;47.73;100659.80;1785825;80;21141;-77
2021/04/19 01:20:57;;;;;;;7.33;6.60;;;;;;;14.29;47.74;100660.98;1786128;80;21171;-77
2021/04/19 01:23:26;;;;;;;7.60;6.83;;;;;;;14.28;47.73;100668.73;1759768;80;21180;-76
2021/04/19 01:25:54;;;;;;;6.60;5.70;;;;;;;14.31;47.61;100668.40;1757441;80;21734;-75
2021/04/19 01:28:23;;;;;;;6.33;5.35;;;;;;;14.34;47.54;100664.48;1781756;80;21564;-76
2021/04/19 01:30:51;;;;;;;7.30;5.87;;;;;;;14.32;47.49;100661.98;1786291;80;21116;-77
2021/04/19 01:33:20;;;;;;;7.80;6.12;;;;;;;14.26;47.63;100660.49;1787752;79;21156;-77
2021/04/19 01:35:49;;;;;;;8.33;6.33;;;;;;;14.31;47.50;100656.27;1789785;79;21069;-76
2021/04/19 01:38:20;;;;;;;8.05;6.10;;;;;;;14.32;47.45;100652.55;1789854;79;21093;-76
2021/04/19 01:40:49;;;;;;;6.97;6.00;;;;;;;14.30;47.46;100647.00;1789965;79;21108;-77
2021/04/19 01:43:17;;;;;;;7.22;6.33;;;;;;;14.31;47.37;100648.70;1794364;79;21039;-76
2021/04/19 01:45:50;;;;;;;7.60;6.25;;;;;;;14.31;47.29;100650.88;1792326;79;21096;-76
2021/04/19 01:48:22;;;;;;;7.28;6.37;;;;;;;14.30;47.22;100655.91;1771289;79;21104;-76
2021/04/19 01:50:51;;;;;;;6.17;5.50;;;;;;;14.27;47.12;100655.45;1821485;79;21176;-77
2021/04/19 01:53:19;;;;;;;6.35;5.03;;;;;;;14.17;47.18;100656.52;1819499;79;21041;-77
2021/04/19 01:55:47;;;;;;;6.85;5.37;;;;;;;14.18;47.10;100657.36;1789938;79;21057;-78
2021/04/19 01:58:18;;;;;;;6.08;5.47;;;;;;;14.18;47.10;100657.36;1789061;79;21076;-77
2021/04/19 02:00:54;;;;;;;8.75;5.58;;;;;;;14.16;47.07;100652.12;1788785;79;21088;-76
2021/04/19 02:04:03;;;;;;;5.70;5.08;;;;;;;14.16;46.93;100657.52;1817964;79;21163;-77
2021/04/19 02:06:53;;;;;;;19.32;6.42;;;;;;;14.12;46.85;100661.57;1816814;79;21148;-77
2021/04/19 02:09:58;;;;;;;46.53;7.75;;;;;;;14.09;46.87;100663.80;1817388;79;21131;-77
2021/04/19 02:12:48;;;;;;;7.15;6.10;;;;;;;14.04;46.93;100661.64;1792355;79;21056;-77
2021/04/19 02:15:32;;;;;;;6.75;5.60;;;;;;;13.94;47.05;100652.42;1766455;81;21227;-76
2021/04/19 02:18:22;;;;;;;6.35;5.55;;;;;;;13.96;47.06;100658.46;1789239;79;21156;-75
2021/04/19 02:21:05;;;;;;;;;;;;;;;13.98;46.98;100654.23;1807340;79;21133;-76
2021/04/19 02:23:43;;;;;;;7.08;5.85;;;;;;;13.92;47.00;100653.60;1803189;79;20216;-77
2021/04/19 02:26:19;;;;;;;6.50;5.78;;;;;;;13.91;47.08;100659.50;1809715;79;21576;-76
2021/04/19 02:29:08;;;;;;;7.28;6.53;;;;;;;13.85;47.31;100658.00;1811428;79;21177;-75
2021/04/19 02:31:49;;;;;;;9.45;8.03;;;;;;;13.92;47.12;100661.68;1791446;80;21618;-76
2021/04/19 02:34:19;;;;;;;9.98;8.63;;;;;;;14.03;46.86;100655.89;1804414;79;21604;-76
2021/04/19 02:36:50;;;;;;;10.58;9.13;;;;;;;14.05;46.75;100655.23;1774306;79;21929;-76
2021/04/19 02:39:18;;;;;;;11.03;9.43;;;;;;;13.94;46.91;100650.22;1803803;79;22561;-76
2021/04/19 02:41:50;;;;;;;8.98;7.62;;;;;;;13.84;47.09;100653.63;1801645;79;21022;-75
2021/04/19 02:44:20;;;;;;;7.92;6.60;;;;;;;13.80;47.15;100655.83;1765186;80;21687;-77
2021/04/19 02:46:52;;;;;;;7.30;6.12;;;;;;;13.78;47.14;100655.69;1785626;79;21138;-75
2021/04/19 02:49:23;;;;;;;7.47;6.05;;;;;;;13.74;47.13;100657.05;1801898;78;21132;-75
2021/04/19 02:51:50;;;;;;;7.00;5.92;;;;;;;13.83;46.85;100650.61;1803658;78;21164;-75
2021/04/19 02:54:20;;;;;;;8.78;6.90;;;;;;;13.88;46.68;100655.80;1791861;80;21184;-75
2021/04/19 02:56:49;;;;;;;8.58;6.25;;;;;;;13.80;46.81;100663.91;1804401;79;21448;-75
2021/04/19 02:59:19;;;;;;;7.42;6.62;;;;;;;13.71;46.98;100668.47;1805681;79;21120;-75
2021/04/19 03:01:50;;;;;;;7.15;6.28;;;;;;;13.71;46.97;100671.17;1804256;78;21194;-77
2021/04/19 03:04:22;;;;;;;6.75;6.05;;;;;;;13.67;47.04;100667.65;1807756;79;21171;-75
2021/04/19 03:06:53;;;;;;;7.47;6.30;;;;;;;13.63;47.07;100667.18;1786656;79;21182;-76
2021/04/19 03:09:23;;;;;;;7.00;6.30;;;;;;;13.67;46.98;100664.48;1801016;79;21180;-76
2021/04/19 03:12:04;;;;;;;10.58;7.75;;;;;;;13.67;46.92;100670.34;1797408;79;21196;-75
2021/04/19 03:14:38;;;;;;;9.85;8.25;;;;;;;13.63;46.98;100667.18;1797368;79;21180;-76
2021/04/19 03:17:10;;;;;;;9.68;8.68;;;;;;;13.61;47.05;100669.19;1799510;79;21137;-75
2021/04/19 03:20:02;;;;;;;9.53;7.80;;;;;;;13.72;46.87;100672.03;1799462;78;21101;-75
2021/04/19 03:22:31;;;;;;;10.40;6.78;;;;;;;13.76;46.76;100674.69;1797833;78;21196;-76
2021/04/19 03:24:59;;;;;;;6.90;5.35;;;;;;;13.80;46.74;100673.84;1780405;79;21431;-74
2021/04/19 03:27:29;;;;;;;6.70;6.00;;;;;;;13.80;46.78;100675.19;1754838;79;21197;-75
2021/04/19 03:30:00;;;;;;;6.17;5.30;;;;;;;13.75;46.95;100678.91;1797585;79;21188;-74
2021/04/19 03:32:40;;;;;;;7.25;5.83;;;;;;;13.77;47.02;100679.59;1755184;79;21196;-75
2021/04/19 03:35:12;;;;;;;6.95;5.72;;;;;;;13.78;47.06;100675.37;1797918;79;21220;-75
2021/04/19 03:37:40;;;;;;;7.03;6.00;;;;;;;13.81;47.03;100679.58;1780764;79;21709;-76
2021/04/19 03:40:28;;;;;;;7.28;6.28;;;;;;;13.82;47.04;100681.25;1802864;79;21137;-75
2021/04/19 03:43:06;;;;;;;6.55;5.70;;;;;;;13.81;47.07;100682.27;1787095;79;21060;-76
2021/04/19 03:45:37;;;;;;;6.97;6.28;;;;;;;13.82;47.10;100678.05;1789249;79;21583;-76
2021/04/19 03:48:19;;;;;;;8.15;6.95;;;;;;;13.79;47.29;100686.97;1752682;80;21148;-76
2021/04/19 03:50:57;;;;;;;8.15;7.33;;;;;;;13.89;47.22;100684.91;1796989;79;21065;-76
2021/04/19 03:53:26;;;;;;;11.12;8.78;;;;;;;13.98;47.18;100685.20;1784530;77;21054;-76
2021/04/19 03:55:55;;;;;;;9.93;8.00;;;;;;;14.03;47.15;100688.72;1787008;80;21191;-76
2021/04/19 03:58:23;;;;;;;14.43;9.00;;;;;;;14.07;47.02;100688.20;1777472;79;21236;-77
2021/04/19 04:00:53;;;;;;;11.08;8.30;;;;;;;14.12;46.99;100687.67;1790941;79;21640;-76
2021/04/19 04:03:26;;;;;;;10.25;7.95;;;;;;;14.16;46.98;100687.14;1791015;79;21168;-77
2021/04/19 04:05:55;;;;;;;8.05;7.00;;;;;;;14.16;46.85;100685.80;1801942;79;21165;-75
2021/04/19 04:08:25;;;;;;;9.43;7.75;;;;;;;14.15;46.91;100694.90;1775001;79;21201;-76
2021/04/19 04:10:52;;;;;;;11.90;8.65;;;;;;;14.19;46.82;100693.54;1789069;78;21193;-75
2021/04/19 04:13:20;;;;;;;8.70;7.60;;;;;;;14.21;46.70;100694.19;1776943;79;21207;-76
2021/04/19 04:15:59;;;;;;;9.50;6.95;;;;;;;14.08;46.98;100692.59;1791052;80;21058;-78
2021/04/19 04:18:29;;;;;;;7.97;7.15;;;;;;;14.04;47.00;100695.30;1803394;77;21166;-77
2021/04/19 04:20:57;;;;;;;7.58;6.47;;;;;;;14.05;47.13;100702.36;1801700;78;21201;-75
2021/04/19 04:23:26;;;;;;;8.73;7.42;;;;;;;14.10;47.07;100698.63;1791354;79;21180;-78
2021/04/19 04:25:53;;;;;;;;;;;;;;;14.13;46.99;100701.50;1761150;79;21180;-77
2021/04/19 04:28:22;;;;;;;10.23;6.75;;;;;;;14.14;47.01;100701.82;1809495;79;20977;-77
2021/04/19 04:30:54;;;;;;;8.85;6.50;;;;;;;14.19;46.83;100706.17;1754789;80;21127;-76
2021/04/19 04:33:25;;;;;;;8.28;5.75;;;;;;;14.27;46.61;100710.69;1785870;79;21642;-77
2021/04/19 04:36:00;;;;;;;8.53;7.22;;;;;;;14.28;46.46;100705.63;1793300;79;21219;-77
2021/04/19 04:38:31;;;;;;;8.35;7.47;;;;;;;14.26;46.46;100706.30;1782996;79;21200;-77
2021/04/19 04:40:59;;;;;;;9.25;7.87;;;;;;;14.26;46.52;100702.25;1790669;79;21960;-76
2021/04/19 04:43:28;;;;;;;9.55;8.55;;;;;;;14.29;46.65;100707.30;1794440;79;21642;-75
2021/04/19 04:46:38;;;;;;;8.63;7.30;;;;;;;14.31;46.58;100699.89;1795262;79;21209;-75
2021/04/19 04:49:16;;;;;;;9.35;7.87;;;;;;;14.34;46.64;100698.17;1807264;79;21165;-76
2021/04/19 04:51:43;;;;;;;8.45;7.42;;;;;;;14.27;46.80;100702.09;1789047;80;21110;-77
2021/04/19 04:54:14;;;;;;;9.13;8.10;;;;;;;14.34;46.62;100707.09;1749090;79;21581;-78
2021/04/19 04:56:44;;;;;;;10.58;7.45;;;;;;;14.39;46.43;100704.70;1815823;78;21164;-77
2021/04/19 04:59:11;;;;;;;9.98;7.58;;;;;;;14.42;46.44;100703.52;1803497;79;21115;-77
2021/04/19 05:01:38;;;;;;;12.65;8.10;;;;;;;14.46;46.44;100698.11;1769076;79;21179;-76
2021/04/19 05:04:06;;;;;;;10.08;6.50;;;;;;;14.47;46.24;100698.44;1767059;77;21156;-76
2021/04/19 05:06:34;;;;;;;9.40;6.97;;;;;;;14.51;46.16;100700.31;1759709;79;21327;-77
2021/04/19 05:09:01;;;;;;;;;;;;;;;14.54;46.08;100705.36;1762496;80;21213;-76
2021/04/19 05:11:28;;;;;;;8.60;7.53;;;;;;;14.56;45.97;100700.09;1782862;80;20274;-77
2021/04/19 05:14:01;;;;;;;13.05;7.30;;;;;;;14.52;46.07;100702.81;1809054;79;21168;-74
2021/04/19 05:16:30;;;;;;;8.73;7.83;;;;;;;14.49;46.03;100699.15;1789681;77;21164;-77
2021/04/19 05:19:05;;;;;;;13.88;10.05;;;;;;;14.51;45.97;100697.61;1793812;77;21187;-76
2021/04/19 05:21:43;;;;;;;10.60;8.00;;;;;;;14.50;45.99;100695.43;1795837;79;21179;-78
2021/04/19 05:24:11;;;;;;;14.83;8.60;;;;;;;14.50;46.13;100693.25;1810584;79;21049;-76
2021/04/19 05:26:39;;;;;;;9.08;7.17;;;;;;;14.54;45.99;100688.67;1782979;77;21212;-77
2021/04/19 05:29:06;;;;;;;10.48;7.47;;;;;;;14.96;45.21;100688.70;1789593;77;21557;-76
2021/04/19 05:31:35;;;;;;;8.93;7.58;;;;;;;15.27;44.57;100686.41;1801364;77;21160;-76
2021/04/19 05:34:04;;;;;;;11.65;7.50;;;;;;;15.37;44.32;100684.28;1779722;77;21761;-75
2021/04/19 05:36:32;;;;;;;10.88;8.05;;;;;;;15.45;44.12;100683.69;1780737;79;21266;-76
2021/04/19 05:39:00;;;;;;;9.85;7.40;;;;;;;15.57;43.87;100681.36;1797277;79;21200;-76
2021/04/19 05:41:27;;;;;;;10.10;7.97;;;;;;;15.45;44.10;100678.80;1727160;78;21612;-75
2021/04/19 05:43:56;;;;;;;8.80;7.87;;;;;;;15.15;44.68;100684.14;1730368;82;21895;-77
2021/04/19 05:46:27;;;;;;;8.83;7.85;;;;;;;15.16;44.63;100687.16;1774852;78;21101;-76
2021/04/19 05:48:54;;;;;;;18.92;7.75;;;;;;;15.17;44.81;100688.86;1790935;78;21137;-75
2021/04/19 05:51:27;;;;;;;8.23;7.25;;;;;;;15.27;44.91;100691.81;1792483;79;21117;-76
2021/04/19 05:53:56;;;;;;;11.03;7.00;;;;;;;15.36;44.72;100683.45;1738595;81;21955;-77
2021/04/19 05:56:47;;;;;;;10.93;7.85;;;;;;;15.45;44.38;100691.79;1756812;80;21088;-76
2021/04/19 05:59:36;;;;;;;9.85;7.37;;;;;;;15.51;44.24;100680.76;1766282;80;21130;-76
2021/04/19 06:02:03;;;;;;;9.08;7.70;;;;;;;15.58;44.02;100687.11;1688721;83;21168;-77
2021/04/19 06:04:40;;;;;;;13.60;8.13;;;;;;;15.63;43.89;100681.98;1691086;83;21543;-79
2021/04/19 06:07:46;;;;;;;8.73;7.42;;;;;;;16.03;43.26;100677.13;1867777;76;22698;-76
2021/04/19 06:10:48;;;;;;;8.48;7.58;;;;;;;15.87;43.57;100673.30;1830740;77;21208;-75
2021/04/19 06:13:35;;;;;;;8.63;7.67;;;;;;;16.22;43.08;100673.86;1829760;77;21192;-76
2021/04/19 06:16:04;;;;;;;9.05;8.15;;;;;;;16.57;42.64;100674.02;1804197;78;22277;-76
2021/04/19 06:18:31;;;;;;;9.80;7.83;;;;;;;16.79;42.09;100665.95;1775332;78;21177;-76
2021/04/19 06:21:01;;;;;;;;;;;;;;;16.94;41.74;100665.34;1737950;80;21817;-76
2021/04/19 06:23:28;;;;;;;8.43;7.28;;;;;;;16.69;42.11;100662.19;1779705;79;20292;-76
2021/04/19 06:25:56;;;;;;;9.30;7.85;;;;;;;16.66;42.15;100663.40;1765423;79;21240;-76
2021/04/19 06:28:25;;;;;;;7.87;7.05;;;;;;;16.74;42.00;100666.02;1742375;80;21221;-75
2021/04/19 06:30:54;;;;;;;10.32;7.60;;;;;;;16.83;41.88;100664.53;1791033;78;21226;-75
2021/04/19 06:33:21;;;;;;;;;;;;;;;16.93;41.58;100668.58;1757707;78;21237;-75
2021/04/19 06:35:49;;;;;;;8.85;7.87;;;;;;;17.01;41.17;100673.02;1779230;80;20388;-77
2021/04/19 06:38:15;;;;;;;;;;;;;;;17.05;41.03;100674.31;1769964;78;21216;-75
2021/04/19 06:40:45;;;;;;;8.63;7.47;;;;;;;17.13;40.92;100672.83;1796502;78;20297;-76
2021/04/19 06:43:12;;;;;;;9.80;7.85;;;;;;;17.23;40.86;100671.13;1795517;78;21140;-78
2021/04/19 06:45:40;;;;;;;8.95;8.03;;;;;;;17.37;40.85;100669.36;1775202;78;21206;-77
2021/04/19 06:48:10;;;;;;;8.88;7.97;;;;;;;17.54;40.72;100664.48;1795300;78;21181;-76
2021/04/19 06:50:39;;;;;;;13.05;7.47;;;;;;;17.71;40.70;100659.90;1752474;78;21176;-77
2021/04/19 06:53:07;;;;;;;9.05;7.65;;;;;;;17.86;40.22;100658.95;1769106;79;21178;-78
2021/04/19 06:55:37;;;;;;;8.08;7.28;;;;;;;17.99;39.89;100653.61;1772261;79;21434;-77
2021/04/19 06:58:05;;;;;;;8.05;7.25;;;;;;;18.07;39.40;100651.22;1768550;79;21522;-76
2021/04/19 07:00:33;;;;;;;10.23;7.65;;;;;;;18.12;39.44;100650.95;1790921;78;21229;-76
2021/04/19 07:03:06;;;;;;;11.22;6.72;;;;;;;18.17;39.33;100649.81;1795621;78;21193;-76
2021/04/19 07:05:37;;;;;;;7.55;6.83;;;;;;;18.20;39.21;100653.45;1777266;79;21238;-76
2021/04/19 07:08:44;;;;;;;10.25;7.17;;;;;;;18.26;38.91;100655.90;1794067;78;21117;-77
2021/04/19 07:11:13;;;;;;;8.93;7.97;;;;;;;18.37;39.09;100655.81;1781301;79;21617;-77
2021/04/19 07:13:40;;;;;;;;;;;;;;;18.57;39.07;100646.36;1747729;80;21146;-77
2021/04/19 07:16:07;;;;;;;7.42;6.72;;;;;;;18.72;38.79;100647.89;1759599;80;20284;-76
2021/04/19 07:18:36;;;;;;;8.38;7.47;;;;;;;18.89;38.83;100649.66;1772165;78;21208;-76
2021/04/19 07:21:08;;;;;;;8.48;7.40;;;;;;;19.10;38.66;100652.70;1773129;79;21114;-75
2021/04/19 07:23:36;;;;;;;10.78;7.35;;;;;;;19.31;38.68;100646.75;1724347;80;21127;-75
2021/04/19 07:26:05;;;;;;;8.30;7.50;;;;;;;19.53;37.96;100630.52;1769823;79;21127;-75
2021/04/19 07:28:37;;;;;;;9.43;7.47;;;;;;;19.74;37.37;100637.05;1750960;80;21635;-76
2021/04/19 07:31:06;;;;;;;7.78;6.97;;;;;;;19.91;37.26;100636.06;1768100;80;21138;-75
2021/04/19 07:33:35;;;;;;;8.98;6.35;;;;;;;20.10;36.94;100634.30;1773840;79;21199;-75
2021/04/19 07:36:29;;;;;;;6.72;6.10;;;;;;;20.27;36.56;100638.72;1780343;79;21451;-78
2021/04/19 07:38:59;;;;;;;7.50;6.50;;;;;;;20.42;36.38;100633.81;1705733;83;22329;-78
2021/04/19 07:41:51;;;;;;;7.28;6.58;;;;;;;20.64;36.16;100634.87;1757594;80;21142;-78
2021/04/19 07:44:42;;;;;;;8.40;6.67;;;;;;;20.82;35.76;100636.30;1769960;80;21478;-76
2021/04/19 07:50:23;;;;;;;7.15;5.62;;;;;;;21.14;34.10;100632.99;1777963;78;22609;-77
2021/04/19 07:53:07;;;;;;;6.62;5.97;;;;;;;21.15;33.81;100625.12;1800063;77;21178;-79
2021/04/19 07:55:41;;;;;;;7.83;5.85;;;;;;;21.17;33.70;100628.47;1769130;80;21683;-77
2021/04/19 07:58:24;;;;;;;6.20;5.62;;;;;;;21.13;33.14;100631.87;1777112;78;21146;-77
2021/04/19 08:00:53;;;;;;;9.53;5.95;;;;;;;21.10;33.03;100622.23;1783671;80;21109;-76
2021/04/19 08:03:22;;;;;;;8.60;6.50;;;;;;;20.86;33.50;100621.72;1751949;80;21181;-78
2021/04/19 08:05:51;;;;;;;7.42;6.20;;;;;;;20.81;33.51;100620.20;1744767;79;21180;-78
2021/04/19 08:08:30;;;;;;;7.25;5.85;;;;;;;20.94;33.45;100621.45;1734835;80;21668;-78
2021/04/19 08:11:15;;;;;;;6.58;5.97;;;;;;;20.95;33.80;100612.22;1784327;78;21138;-77
2021/04/19 08:13:43;;;;;;;6.70;6.10;;;;;;;21.04;33.92;100612.25;1780349;80;21181;-77
2021/04/19 08:16:25;;;;;;;7.25;6.60;;;;;;;21.15;33.85;100608.77;1778698;78;21794;-75
2021/04/19 08:19:01;;;;;;;15.78;12.70;;;;;;;21.22;33.70;100611.45;1780939;78;21121;-76
2021/04/19 08:21:35;;;;;;;6.30;5.70;;;;;;;21.31;33.72;100607.91;1772853;79;21130;-76
2021/04/19 08:24:16;;;;;;;;;;;;;;;21.38;33.35;100603.24;1776958;79;21218;-78
2021/04/19 08:26:57;;;;;;;6.75;5.37;;;;;;;21.21;33.24;100609.27;1774454;78;20538;-78
2021/04/19 08:29:50;;;;;;;6.30;5.03;;;;;;;21.08;33.10;100612.11;1773791;80;21165;-76
2021/04/19 08:32:22;;;;;;;6.25;5.60;;;;;;;21.14;32.96;100601.67;1782578;78;21189;-80
2021/04/19 08:34:51;;;;;;;6.45;5.83;;;;;;;21.05;33.18;100598.09;1787109;80;21225;-76
2021/04/19 08:37:22;;;;;;;5.72;5.20;;;;;;;21.00;33.21;100592.79;1780721;78;21500;-80
2021/04/19 08:39:49;;;;;;;10.03;6.00;;;;;;;20.94;33.17;100587.42;1779700;78;21122;-75
2021/04/19 08:42:18;;;;;;;7.47;6.12;;;;;;;20.90;33.70;100584.30;1781063;78;20991;-75
2021/04/19 08:44:46;;;;;;;6.03;5.53;;;;;;;20.77;34.43;100589.32;1779317;78;21133;-76
2021/04/19 08:47:20;;;;;;;6.85;5.78;;;;;;;20.72;35.08;100591.05;1780488;79;21050;-76
2021/04/19 08:49:49;;;;;;;6.47;5.75;;;;;;;20.77;35.12;100592.05;1773386;78;21159;-75
2021/04/19 08:52:17;;;;;;;6.97;5.72;;;;;;;20.90;34.48;100593.00;1779905;78;21137;-77
2021/04/19 08:54:45;;;;;;;7.15;5.08;;;;;;;20.99;34.51;100580.77;1781721;78;21140;-77
2021/04/19 08:57:13;;;;;;;5.87;5.37;;;;;;;20.98;34.80;100584.02;1775448;78;21129;-78
2021/04/19 09:00:03;;;;;;;6.30;5.70;;;;;;;21.03;34.54;100589.63;1778079;78;21134;-77
2021/04/19 09:02:31;;;;;;;6.87;5.62;;;;;;;21.02;34.38;100589.30;1768656;79;21141;-76
2021/04/19 09:05:09;;;;;;;6.22;5.62;;;;;;;21.03;34.33;100594.25;1766861;80;21122;-76
2021/04/19 09:07:44;;;;;;;5.70;5.20;;;;;;;20.99;33.87;100593.02;1768038;79;21725;-76
2021/04/19 09:10:16;;;;;;;6.95;5.62;;;;;;;21.13;33.02;100583.66;1765272;79;21154;-78
2021/04/19 09:12:46;;;;;;;7.83;5.33;;;;;;;20.82;33.66;100583.74;1773733;79;21616;-77
2021/04/19 09:15:29;;;;;;;8.53;6.10;;;;;;;20.69;33.57;100588.23;1782356;79;21007;-77
2021/04/19 09:18:08;;;;;;;6.72;6.08;;;;;;;20.52;33.75;100582.48;1778480;78;21141;-75
2021/04/19 09:20:53;;;;;;;6.00;4.95;;;;;;;20.35;34.33;100577.77;1797206;77;21216;-76
2021/04/19 09:23:32;;;;;;;6.90;5.33;;;;;;;20.31;34.42;100577.92;1768416;79;21174;-76
2021/04/19 09:26:03;;;;;;;5.92;5.33;;;;;;;20.32;33.76;100576.86;1787999;79;21206;-77
2021/04/19 09:28:47;;;;;;;6.75;5.50;;;;;;;20.23;34.21;100581.73;1739785;79;21688;-74
2021/04/19 09:31:59;;;;;;;6.37;5.78;;;;;;;20.04;33.80;100575.88;1760516;80;21616;-76
2021/04/19 09:34:54;;;;;;;5.80;5.10;;;;;;;19.87;34.14;100578.26;1810261;77;21200;-75
2021/04/19 09:37:43;;;;;;;6.33;5.37;;;;;;;19.72;34.19;100576.66;1800429;78;21099;-75
2021/04/19 09:40:26;;;;;;;6.53;5.90;;;;;;;19.62;34.29;100574.06;1801421;77;21165;-74
2021/04/19 09:43:03;;;;;;;5.17;4.45;;;;;;;19.51;34.26;100576.37;1719647;81;21747;-74
2021/04/19 09:45:50;;;;;;;;;;;;;;;19.41;34.50;100575.16;1759714;80;21177;-74
2021/04/19 09:48:33;;;;;;;6.35;4.90;;;;;;;19.46;34.38;100583.50;1775580;79;20256;-76
2021/04/19 09:51:16;;;;;;;5.92;4.47;;;;;;;19.44;34.25;100582.86;1768486;79;21512;-76
2021/04/19 09:53:49;;;;;;;8.48;4.30;;;;;;;19.37;33.99;100588.33;1763456;80;21192;-77
2021/04/19 09:56:27;;;;;;;8.20;5.03;;;;;;;19.26;34.04;100587.11;1751939;78;21129;-76
2021/04/19 09:59:03;;;;;;;5.83;5.22;;;;;;;19.17;34.13;100584.83;1794309;78;21189;-76
2021/04/19 10:01:32;;;;;;;7.58;4.53;;;;;;;19.08;34.41;100591.00;1796557;77;21120;-76
2021/04/19 10:04:00;;;;;;;5.15;4.42;;;;;;;19.03;34.95;100590.80;1770169;79;21117;-76
2021/04/19 10:06:46;;;;;;;6.22;4.97;;;;;;;19.03;34.89;100594.88;1766175;79;21238;-77
2021/04/19 10:09:26;;;;;;;5.33;4.33;;;;;;;19.02;34.95;100597.25;1734776;80;21241;-76
2021/04/19 10:12:03;;;;;;;5.58;3.98;;;;;;;19.05;34.55;100591.94;1761604;80;21456;-77
2021/04/19 10:14:35;;;;;;;10.40;3.58;;;;;;;19.05;34.66;100590.05;1766906;80;21566;-77
2021/04/19 10:17:16;;;;;;;4.03;3.60;;;;;;;19.07;34.39;100591.19;1773238;80;21605;-77
2021/04/19 10:19:45;;;;;;;8.25;4.80;;;;;;;19.05;33.97;100587.34;1761112;79;21837;-77
2021/04/19 10:22:15;;;;;;;4.87;3.87;;;;;;;19.09;34.26;100591.30;1761669;79;21234;-77
2021/04/19 10:24:56;;;;;;;4.50;3.80;;;;;;;19.09;34.06;100591.30;1738350;80;21150;-76
2021/04/19 10:27:31;;;;;;;7.30;3.90;;;;;;;19.07;33.71;100589.83;1789861;79;21121;-75
2021/04/19 10:30:19;;;;;;;4.62;3.80;;;;;;;19.03;33.28;100587.22;1771788;80;21103;-77
2021/04/19 10:32:46;;;;;;;5.08;4.35;;;;;;;18.96;33.37;100581.29;1795472;78;21151;-77
2021/04/19 10:35:37;;;;;;;4.45;3.77;;;;;;;18.92;34.14;100584.11;1784959;78;21152;-79
2021/04/19 10:38:07;;;;;;;4.45;3.85;;;;;;;18.89;34.25;100590.47;1755130;79;21757;-77
2021/04/19 10:40:34;;;;;;;7.08;3.52;;;;;;;18.89;34.05;100580.97;1771219;79;21196;-75
2021/04/19 10:43:11;;;;;;;5.12;4.10;;;;;;;18.88;34.07;100588.28;1799175;77;21188;-75
2021/04/19 10:45:40;;;;;;;5.55;3.92;;;;;;;18.88;34.38;100591.00;1747423;80;21600;-75
2021/04/19 10:48:22;;;;;;;4.25;3.80;;;;;;;18.80;33.54;100582.23;1774847;80;21190;-77
2021/04/19 10:50:52;;;;;;;6.72;4.00;;;;;;;18.73;33.75;100583.08;1765788;79;21145;-76
2021/04/19 10:53:33;;;;;;;4.85;3.70;;;;;;;18.69;33.52;100585.88;1746144;80;21716;-75
2021/04/19 10:56:03;;;;;;;6.20;5.03;;;;;;;18.72;33.71;100581.41;1769427;79;21170;-78
2021/04/19 10:58:34;;;;;;;4.62;3.65;;;;;;;18.74;33.58;100586.62;1764107;80;21456;-77
2021/04/19 11:01:06;;;;;;;5.00;4.05;;;;;;;18.73;33.65;100578.17;1762259;80;21245;-76
2021/04/19 11:03:37;;;;;;;5.70;4.30;;;;;;;18.77;33.74;100580.78;1765243;80;21177;-76
2021/04/19 11:06:10;;;;;;;4.60;3.90;;;;;;;18.80;33.73;100576.80;1744740;81;21500;-77
2021/04/19 11:08:57;;;;;;;4.40;4.00;;;;;;;18.81;33.83;100581.20;1785702;79;21248;-77
2021/04/19 11:11:43;;;;;;;4.87;3.87;;;;;;;18.74;33.99;100571.17;1788637;79;21217;-76
2021/04/19 11:14:19;;;;;;;4.17;3.50;;;;;;;18.73;34.00;100572.22;1780639;79;21224;-77
2021/04/19 11:17:03;;;;;;;4.22;3.83;;;;;;;18.74;33.92;100569.81;1788213;78;21213;-76
2021/04/19 11:19:35;;;;;;;4.67;3.85;;;;;;;18.74;33.91;100570.34;1776742;79;21196;-79
2021/04/19 11:22:32;;;;;;;5.47;4.53;;;;;;;18.73;34.14;100569.50;1762359;80;21653;-76
2021/04/19 11:25:18;;;;;;;5.22;4.40;;;;;;;18.72;34.31;100565.66;1745841;80;21177;-79
2021/04/19 11:27:52;;;;;;;5.72;4.90;;;;;;;18.69;34.55;100564.70;1802559;79;21726;-79
2021/04/19 11:30:28;;;;;;;7.87;5.15;;;;;;;18.66;34.33;100566.44;1768996;79;21204;-78
2021/04/19 11:33:13;;;;;;;6.05;4.78;;;;;;;18.65;34.67;100564.25;1793710;79;21136;-77
2021/04/19 11:35:45;;;;;;;10.08;4.72;;;;;;;18.64;34.73;100562.59;1783840;77;21213;-79
2021/04/19 11:38:20;;;;;;;4.80;4.03;;;;;;;18.58;34.89;100559.88;1771954;80;21196;-76
2021/04/19 11:40:49;;;;;;;4.90;4.00;;;;;;;18.53;34.67;100560.51;1733215;80;21138;-75
2021/04/19 11:43:28;;;;;;;8.40;4.00;;;;;;;18.46;34.80;100559.66;1717713;80;21212;-78
2021/04/19 11:46:07;;;;;;;7.45;4.42;;;;;;;18.45;35.00;100558.83;1761594;80;21532;-76
2021/04/19 11:48:41;;;;;;;6.25;4.08;;;;;;;18.48;35.18;100554.84;1768262;79;21015;-77
2021/04/19 11:51:09;;;;;;;5.30;4.42;;;;;;;18.51;35.26;100556.63;1761712;80;21158;-77
2021/04/19 11:53:40;;;;;;;6.65;4.30;;;;;;;18.54;35.18;100551.32;1757185;80;21182;-76
2021/04/19 11:56:10;;;;;;;4.65;3.80;;;;;;;18.72;34.69;100559.70;1737508;80;21196;-76
2021/04/19 11:58:45;;;;;;;4.47;3.92;;;;;;;18.81;34.78;100560.85;1774377;79;21205;-75
2021/04/19 12:01:20;;;;;;;6.30;4.22;;;;;;;18.75;35.16;100558.43;1798400;78;21165;-76